sensor_id;sensor_type;location;lat;lon;timestamp;temperature;humidity
18888;DHT22;9576;47.792;9.628;2022-11-10T00:03:01;10.90;99.90
18888;DHT22;9576;47.792;9.628;2022-11-10T00:06:03;10.90;99.90
18888;DHT22;9576;47.792;9.628;2022-11-10T00:09:06;11.00;99.90
18888;DHT22;9576;47.792;9.628;2022-11-10T00:12:09;11.10;99.90
18888;DHT22;9576;47.792;9.628;2022-11-10T00:15:11;11.00;99.90
18888;DHT22;9576;47.792;9.628;2022-11-10T00:18:30;10.90;99.90
18888;DHT22;9576;47.792;9.628;2022-11-10T00:21:32;11.00;99.90
18888;DHT22;9576;47.792;9.628;2022-11-10T00:24:36;11.00;99.90
18888;DHT22;9576;47.792;9.628;2022-11-10T00:27:39;11.00;99.90
18888;DHT22;9576;47.792;9.628;2022-11-10T00:30:41;11.00;99.90
18888;DHT22;9576;47.792;9.628;2022-11-10T00:33:43;11.00;99.90
18888;DHT22;9576;47.792;9.628;2022-11-10T00:36:45;11.00;99.90
18888;DHT22;9576;47.792;9.628;2022-11-10T00:39:47;11.00;99.90
18888;DHT22;9576;47.792;9.628;2022-11-10T00:42:51;11.00;99.90
18888;DHT22;9576;47.792;9.628;2022-11-10T00:45:52;10.90;99.90
18888;DHT22;9576;47.792;9.628;2022-11-10T00:48:54;10.90;99.90
18888;DHT22;9576;47.792;9.628;2022-11-10T00:51:56;10.70;99.90
18888;DHT22;9576;47.792;9.628;2022-11-10T00:54:58;10.60;99.90
18888;DHT22;9576;47.792;9.628;2022-11-10T00:58:01;10.60;99.90
18888;DHT22;9576;47.792;9.628;2022-11-10T01:01:04;10.50;99.90
18888;DHT22;9576;47.792;9.628;2022-11-10T01:04:06;10.50;99.90
18888;DHT22;9576;47.792;9.628;2022-11-10T01:07:08;10.50;99.90
18888;DHT22;9576;47.792;9.628;2022-11-10T01:10:10;10.60;99.90
18888;DHT22;9576;47.792;9.628;2022-11-10T01:13:13;10.50;99.90
18888;DHT22;9576;47.792;9.628;2022-11-10T01:16:17;10.60;99.90
18888;DHT22;9576;47.792;9.628;2022-11-10T01:19:19;10.60;99.90
18888;DHT22;9576;47.792;9.628;2022-11-10T01:22:21;10.60;99.90
18888;DHT22;9576;47.792;9.628;2022-11-10T01:25:23;10.60;99.90
18888;DHT22;9576;47.792;9.628;2022-11-10T01:28:27;10.60;99.90
18888;DHT22;9576;47.792;9.628;2022-11-10T01:31:29;10.50;99.90
18888;DHT22;9576;47.792;9.628;2022-11-10T01:34:31;10.50;99.90
18888;DHT22;9576;47.792;9.628;2022-11-10T01:37:33;10.50;99.90
18888;DHT22;9576;47.792;9.628;2022-11-10T01:40:35;10.60;99.90
18888;DHT22;9576;47.792;9.628;2022-11-10T01:43:38;10.50;99.90
18888;DHT22;9576;47.792;9.628;2022-11-10T01:46:40;10.60;99.90
18888;DHT22;9576;47.792;9.628;2022-11-10T01:49:42;10.50;99.90
18888;DHT22;9576;47.792;9.628;2022-11-10T01:52:47;10.50;99.90
18888;DHT22;9576;47.792;9.628;2022-11-10T01:55:49;10.50;99.90
18888;DHT22;9576;47.792;9.628;2022-11-10T01:58:55;10.50;99.90
18888;DHT22;9576;47.792;9.628;2022-11-10T02:02:01;10.50;99.90
18888;DHT22;9576;47.792;9.628;2022-11-10T02:05:08;10.40;99.90
18888;DHT22;9576;47.792;9.628;2022-11-10T02:08:12;10.40;99.90
18888;DHT22;9576;47.792;9.628;2022-11-10T02:11:16;10.40;99.90
18888;DHT22;9576;47.792;9.628;2022-11-10T02:14:19;10.40;99.90
18888;DHT22;9576;47.792;9.628;2022-11-10T02:17:21;10.40;99.90
18888;DHT22;9576;47.792;9.628;2022-11-10T02:20:23;10.30;99.90
18888;DHT22;9576;47.792;9.628;2022-11-10T02:23:45;10.30;99.90
18888;DHT22;9576;47.792;9.628;2022-11-10T02:26:50;10.30;99.90
18888;DHT22;9576;47.792;9.628;2022-11-10T02:29:53;10.30;99.90
18888;DHT22;9576;47.792;9.628;2022-11-10T02:32:55;10.30;99.90
18888;DHT22;9576;47.792;9.628;2022-11-10T02:35:57;10.30;99.90
18888;DHT22;9576;47.792;9.628;2022-11-10T02:39:00;10.30;99.90
18888;DHT22;9576;47.792;9.628;2022-11-10T02:42:03;10.20;99.90
18888;DHT22;9576;47.792;9.628;2022-11-10T02:45:09;10.20;99.90
18888;DHT22;9576;47.792;9.628;2022-11-10T02:48:13;10.20;99.90
18888;DHT22;9576;47.792;9.628;2022-11-10T02:51:15;10.20;99.90
18888;DHT22;9576;47.792;9.628;2022-11-10T02:54:19;10.30;99.90
18888;DHT22;9576;47.792;9.628;2022-11-10T02:57:20;10.30;99.90
18888;DHT22;9576;47.792;9.628;2022-11-10T03:00:23;10.30;99.90
18888;DHT22;9576;47.792;9.628;2022-11-10T03:03:25;10.30;99.90
18888;DHT22;9576;47.792;9.628;2022-11-10T03:06:27;10.30;99.90
18888;DHT22;9576;47.792;9.628;2022-11-10T03:09:30;10.30;99.90
18888;DHT22;9576;47.792;9.628;2022-11-10T03:12:32;10.30;99.90
18888;DHT22;9576;47.792;9.628;2022-11-10T03:15:34;10.30;99.90
18888;DHT22;9576;47.792;9.628;2022-11-10T03:18:36;10.20;99.90
18888;DHT22;9576;47.792;9.628;2022-11-10T03:21:38;10.30;99.90
18888;DHT22;9576;47.792;9.628;2022-11-10T03:24:41;10.20;99.90
18888;DHT22;9576;47.792;9.628;2022-11-10T03:27:44;10.10;99.90
18888;DHT22;9576;47.792;9.628;2022-11-10T03:30:46;10.20;99.90
18888;DHT22;9576;47.792;9.628;2022-11-10T03:33:47;10.10;99.90
18888;DHT22;9576;47.792;9.628;2022-11-10T03:36:49;10.10;99.90
18888;DHT22;9576;47.792;9.628;2022-11-10T03:39:53;10.00;99.90
18888;DHT22;9576;47.792;9.628;2022-11-10T03:42:54;9.90;99.90
18888;DHT22;9576;47.792;9.628;2022-11-10T03:45:56;9.90;99.90
18888;DHT22;9576;47.792;9.628;2022-11-10T03:48:58;9.90;99.90
18888;DHT22;9576;47.792;9.628;2022-11-10T03:52:00;9.80;99.90
18888;DHT22;9576;47.792;9.628;2022-11-10T03:55:04;9.70;99.90
18888;DHT22;9576;47.792;9.628;2022-11-10T03:58:06;9.70;99.90
18888;DHT22;9576;47.792;9.628;2022-11-10T04:01:08;9.60;99.90
18888;DHT22;9576;47.792;9.628;2022-11-10T04:04:10;9.60;99.90
18888;DHT22;9576;47.792;9.628;2022-11-10T04:07:33;9.50;99.90
18888;DHT22;9576;47.792;9.628;2022-11-10T04:10:53;9.50;99.90
18888;DHT22;9576;47.792;9.628;2022-11-10T04:13:55;9.40;99.90
18888;DHT22;9576;47.792;9.628;2022-11-10T04:17:14;9.40;99.90
18888;DHT22;9576;47.792;9.628;2022-11-10T04:20:16;9.30;99.90
18888;DHT22;9576;47.792;9.628;2022-11-10T04:23:19;9.20;99.90
18888;DHT22;9576;47.792;9.628;2022-11-10T04:26:31;9.20;99.90
18888;DHT22;9576;47.792;9.628;2022-11-10T04:29:36;9.00;99.90
18888;DHT22;9576;47.792;9.628;2022-11-10T04:32:38;9.00;99.90
18888;DHT22;9576;47.792;9.628;2022-11-10T04:35:40;9.00;99.90
18888;DHT22;9576;47.792;9.628;2022-11-10T04:38:43;8.90;99.90
18888;DHT22;9576;47.792;9.628;2022-11-10T04:41:46;8.80;99.90
18888;DHT22;9576;47.792;9.628;2022-11-10T04:44:48;8.80;99.90
18888;DHT22;9576;47.792;9.628;2022-11-10T04:47:50;8.80;99.90
18888;DHT22;9576;47.792;9.628;2022-11-10T04:50:53;8.70;99.90
18888;DHT22;9576;47.792;9.628;2022-11-10T04:53:55;8.70;99.90
18888;DHT22;9576;47.792;9.628;2022-11-10T04:56:58;8.70;99.90
18888;DHT22;9576;47.792;9.628;2022-11-10T05:00:00;8.70;99.90
18888;DHT22;9576;47.792;9.628;2022-11-10T05:03:05;8.70;99.90
18888;DHT22;9576;47.792;9.628;2022-11-10T05:06:07;8.70;99.90
18888;DHT22;9576;47.792;9.628;2022-11-10T05:09:10;8.80;99.90
18888;DHT22;9576;47.792;9.628;2022-11-10T05:12:13;8.60;99.90
18888;DHT22;9576;47.792;9.628;2022-11-10T05:15:15;8.50;99.90
18888;DHT22;9576;47.792;9.628;2022-11-10T05:18:17;8.40;99.90
18888;DHT22;9576;47.792;9.628;2022-11-10T05:21:19;8.30;99.90
18888;DHT22;9576;47.792;9.628;2022-11-10T05:24:21;8.30;99.90
18888;DHT22;9576;47.792;9.628;2022-11-10T05:27:25;8.20;99.90
18888;DHT22;9576;47.792;9.628;2022-11-10T05:30:27;8.20;99.90
18888;DHT22;9576;47.792;9.628;2022-11-10T05:33:29;8.30;99.90
18888;DHT22;9576;47.792;9.628;2022-11-10T05:36:31;8.20;99.90
18888;DHT22;9576;47.792;9.628;2022-11-10T05:39:33;8.30;99.90
18888;DHT22;9576;47.792;9.628;2022-11-10T05:42:41;8.40;99.90
18888;DHT22;9576;47.792;9.628;2022-11-10T05:45:43;8.50;99.90
18888;DHT22;9576;47.792;9.628;2022-11-10T05:48:46;8.50;99.90
18888;DHT22;9576;47.792;9.628;2022-11-10T05:51:48;8.50;99.90
18888;DHT22;9576;47.792;9.628;2022-11-10T05:54:49;8.40;99.90
18888;DHT22;9576;47.792;9.628;2022-11-10T05:57:53;8.30;99.90
18888;DHT22;9576;47.792;9.628;2022-11-10T06:00:56;8.30;99.90
18888;DHT22;9576;47.792;9.628;2022-11-10T06:03:58;8.20;99.90
18888;DHT22;9576;47.792;9.628;2022-11-10T06:07:00;8.10;99.90
18888;DHT22;9576;47.792;9.628;2022-11-10T06:10:02;8.00;99.90
18888;DHT22;9576;47.792;9.628;2022-11-10T06:13:06;8.00;99.90
18888;DHT22;9576;47.792;9.628;2022-11-10T06:16:08;7.90;99.90
18888;DHT22;9576;47.792;9.628;2022-11-10T06:19:09;7.90;99.90
18888;DHT22;9576;47.792;9.628;2022-11-10T06:22:12;7.90;99.90
18888;DHT22;9576;47.792;9.628;2022-11-10T06:25:14;7.90;99.90
18888;DHT22;9576;47.792;9.628;2022-11-10T06:28:17;7.90;99.90
18888;DHT22;9576;47.792;9.628;2022-11-10T06:31:19;7.90;99.90
18888;DHT22;9576;47.792;9.628;2022-11-10T06:34:21;7.90;99.90
18888;DHT22;9576;47.792;9.628;2022-11-10T06:37:23;7.90;99.90
18888;DHT22;9576;47.792;9.628;2022-11-10T06:40:25;7.90;99.90
18888;DHT22;9576;47.792;9.628;2022-11-10T06:43:28;8.00;99.90
18888;DHT22;9576;47.792;9.628;2022-11-10T06:46:30;8.00;99.90
18888;DHT22;9576;47.792;9.628;2022-11-10T06:49:32;8.10;99.90
18888;DHT22;9576;47.792;9.628;2022-11-10T06:52:34;8.20;99.90
18888;DHT22;9576;47.792;9.628;2022-11-10T06:55:36;8.20;99.90
18888;DHT22;9576;47.792;9.628;2022-11-10T06:58:39;8.40;99.90
18888;DHT22;9576;47.792;9.628;2022-11-10T07:01:41;8.40;99.90
18888;DHT22;9576;47.792;9.628;2022-11-10T07:04:43;8.50;99.90
18888;DHT22;9576;47.792;9.628;2022-11-10T07:07:45;8.60;99.90
18888;DHT22;9576;47.792;9.628;2022-11-10T07:10:51;8.70;99.90
18888;DHT22;9576;47.792;9.628;2022-11-10T07:13:55;8.80;99.90
18888;DHT22;9576;47.792;9.628;2022-11-10T07:16:56;8.90;99.90
18888;DHT22;9576;47.792;9.628;2022-11-10T07:19:58;9.00;99.90
18888;DHT22;9576;47.792;9.628;2022-11-10T07:23:02;9.00;99.90
18888;DHT22;9576;47.792;9.628;2022-11-10T07:26:04;8.90;99.90
18888;DHT22;9576;47.792;9.628;2022-11-10T07:29:08;8.90;99.90
18888;DHT22;9576;47.792;9.628;2022-11-10T07:32:10;8.90;99.90
18888;DHT22;9576;47.792;9.628;2022-11-10T07:35:12;9.00;99.90
18888;DHT22;9576;47.792;9.628;2022-11-10T07:38:13;8.80;99.90
18888;DHT22;9576;47.792;9.628;2022-11-10T07:41:15;8.80;99.90
18888;DHT22;9576;47.792;9.628;2022-11-10T07:44:19;9.00;99.90
18888;DHT22;9576;47.792;9.628;2022-11-10T07:47:20;9.00;99.90
18888;DHT22;9576;47.792;9.628;2022-11-10T07:50:22;9.00;99.90
18888;DHT22;9576;47.792;9.628;2022-11-10T07:53:24;9.00;99.90
18888;DHT22;9576;47.792;9.628;2022-11-10T07:56:26;9.00;99.90
18888;DHT22;9576;47.792;9.628;2022-11-10T07:59:30;9.10;99.90
18888;DHT22;9576;47.792;9.628;2022-11-10T08:02:32;9.10;99.90
18888;DHT22;9576;47.792;9.628;2022-11-10T08:05:34;9.10;99.90
18888;DHT22;9576;47.792;9.628;2022-11-10T08:08:36;9.20;99.90
18888;DHT22;9576;47.792;9.628;2022-11-10T08:11:38;9.30;99.90
18888;DHT22;9576;47.792;9.628;2022-11-10T08:14:41;9.40;99.90
18888;DHT22;9576;47.792;9.628;2022-11-10T08:17:43;9.60;99.90
18888;DHT22;9576;47.792;9.628;2022-11-10T08:20:45;9.70;99.90
18888;DHT22;9576;47.792;9.628;2022-11-10T08:23:48;9.70;99.90
18888;DHT22;9576;47.792;9.628;2022-11-10T08:26:50;9.80;99.90
18888;DHT22;9576;47.792;9.628;2022-11-10T08:29:53;9.80;99.90
18888;DHT22;9576;47.792;9.628;2022-11-10T08:32:55;9.90;99.90
18888;DHT22;9576;47.792;9.628;2022-11-10T08:36:00;10.00;99.90
18888;DHT22;9576;47.792;9.628;2022-11-10T08:39:02;10.10;99.90
18888;DHT22;9576;47.792;9.628;2022-11-10T08:42:04;10.20;99.90
18888;DHT22;9576;47.792;9.628;2022-11-10T08:45:08;10.30;99.90
18888;DHT22;9576;47.792;9.628;2022-11-10T08:48:11;10.30;99.90
18888;DHT22;9576;47.792;9.628;2022-11-10T08:51:13;10.40;99.90
18888;DHT22;9576;47.792;9.628;2022-11-10T08:54:15;10.30;99.90
18888;DHT22;9576;47.792;9.628;2022-11-10T08:57:17;10.40;99.90
18888;DHT22;9576;47.792;9.628;2022-11-10T09:00:21;10.50;99.90
18888;DHT22;9576;47.792;9.628;2022-11-10T09:03:23;10.60;99.90
18888;DHT22;9576;47.792;9.628;2022-11-10T09:06:26;10.60;99.90
18888;DHT22;9576;47.792;9.628;2022-11-10T09:09:27;10.50;99.90
18888;DHT22;9576;47.792;9.628;2022-11-10T09:12:29;10.60;99.90
18888;DHT22;9576;47.792;9.628;2022-11-10T09:15:34;10.70;99.90
18888;DHT22;9576;47.792;9.628;2022-11-10T09:18:36;10.70;99.90
18888;DHT22;9576;47.792;9.628;2022-11-10T09:21:37;10.70;99.90
18888;DHT22;9576;47.792;9.628;2022-11-10T09:24:39;10.80;99.90
18888;DHT22;9576;47.792;9.628;2022-11-10T09:27:41;10.70;99.90
18888;DHT22;9576;47.792;9.628;2022-11-10T09:30:46;10.60;99.90
18888;DHT22;9576;47.792;9.628;2022-11-10T09:33:48;10.50;99.90
18888;DHT22;9576;47.792;9.628;2022-11-10T09:36:50;10.70;99.90
18888;DHT22;9576;47.792;9.628;2022-11-10T09:39:52;10.70;99.90
18888;DHT22;9576;47.792;9.628;2022-11-10T09:42:55;10.80;99.90
18888;DHT22;9576;47.792;9.628;2022-11-10T09:46:00;10.70;99.90
18888;DHT22;9576;47.792;9.628;2022-11-10T09:49:16;10.80;99.90
18888;DHT22;9576;47.792;9.628;2022-11-10T09:52:20;10.80;99.90
18888;DHT22;9576;47.792;9.628;2022-11-10T09:55:30;11.10;99.90
18888;DHT22;9576;47.792;9.628;2022-11-10T09:58:37;11.20;99.90
18888;DHT22;9576;47.792;9.628;2022-11-10T10:01:45;11.40;99.90
18888;DHT22;9576;47.792;9.628;2022-11-10T10:05:06;11.60;99.90
18888;DHT22;9576;47.792;9.628;2022-11-10T10:08:23;11.80;99.90
18888;DHT22;9576;47.792;9.628;2022-11-10T10:11:37;11.90;99.90
18888;DHT22;9576;47.792;9.628;2022-11-10T10:14:53;12.00;99.90
18888;DHT22;9576;47.792;9.628;2022-11-10T10:18:16;11.90;99.90
18888;DHT22;9576;47.792;9.628;2022-11-10T10:21:32;12.00;99.90
18888;DHT22;9576;47.792;9.628;2022-11-10T10:24:37;12.00;99.90
18888;DHT22;9576;47.792;9.628;2022-11-10T10:27:40;12.00;99.90
18888;DHT22;9576;47.792;9.628;2022-11-10T10:30:45;11.90;99.90
18888;DHT22;9576;47.792;9.628;2022-11-10T10:33:49;12.00;99.90
18888;DHT22;9576;47.792;9.628;2022-11-10T10:36:51;11.90;99.90
18888;DHT22;9576;47.792;9.628;2022-11-10T10:39:54;11.80;99.90
18888;DHT22;9576;47.792;9.628;2022-11-10T10:42:56;11.60;99.90
18888;DHT22;9576;47.792;9.628;2022-11-10T10:46:06;11.60;99.90
18888;DHT22;9576;47.792;9.628;2022-11-10T10:49:14;11.70;99.90
18888;DHT22;9576;47.792;9.628;2022-11-10T10:52:17;11.60;99.90
18888;DHT22;9576;47.792;9.628;2022-11-10T10:55:27;11.60;99.90
18888;DHT22;9576;47.792;9.628;2022-11-10T10:58:31;11.60;99.90
18888;DHT22;9576;47.792;9.628;2022-11-10T11:01:37;11.60;99.90
18888;DHT22;9576;47.792;9.628;2022-11-10T11:04:40;11.70;99.90
18888;DHT22;9576;47.792;9.628;2022-11-10T11:07:53;11.80;99.90
18888;DHT22;9576;47.792;9.628;2022-11-10T11:10:55;11.80;99.90
18888;DHT22;9576;47.792;9.628;2022-11-10T11:14:19;11.90;99.90
18888;DHT22;9576;47.792;9.628;2022-11-10T11:17:22;12.00;99.90
18888;DHT22;9576;47.792;9.628;2022-11-10T11:20:33;12.20;99.90
18888;DHT22;9576;47.792;9.628;2022-11-10T11:27:11;12.20;99.90
18888;DHT22;9576;47.792;9.628;2022-11-10T11:30:16;12.20;99.90
18888;DHT22;9576;47.792;9.628;2022-11-10T11:33:29;12.50;99.90
18888;DHT22;9576;47.792;9.628;2022-11-10T11:36:39;12.60;99.90
18888;DHT22;9576;47.792;9.628;2022-11-10T11:39:55;12.70;99.90
18888;DHT22;9576;47.792;9.628;2022-11-10T11:43:08;12.90;99.90
18888;DHT22;9576;47.792;9.628;2022-11-10T11:46:19;13.10;99.90
18888;DHT22;9576;47.792;9.628;2022-11-10T11:49:42;13.50;99.90
18888;DHT22;9576;47.792;9.628;2022-11-10T11:52:54;13.70;99.90
18888;DHT22;9576;47.792;9.628;2022-11-10T11:56:09;13.70;99.90
18888;DHT22;9576;47.792;9.628;2022-11-10T11:59:23;13.60;99.90
18888;DHT22;9576;47.792;9.628;2022-11-10T12:02:41;13.70;99.90
18888;DHT22;9576;47.792;9.628;2022-11-10T12:05:55;13.80;99.90
18888;DHT22;9576;47.792;9.628;2022-11-10T12:09:03;13.90;99.90
18888;DHT22;9576;47.792;9.628;2022-11-10T12:12:24;14.10;99.90
18888;DHT22;9576;47.792;9.628;2022-11-10T12:15:35;14.30;99.90
18888;DHT22;9576;47.792;9.628;2022-11-10T12:18:45;14.60;99.90
18888;DHT22;9576;47.792;9.628;2022-11-10T12:21:51;14.90;99.90
18888;DHT22;9576;47.792;9.628;2022-11-10T12:25:07;15.10;99.90
18888;DHT22;9576;47.792;9.628;2022-11-10T12:28:16;15.50;99.90
18888;DHT22;9576;47.792;9.628;2022-11-10T12:31:21;16.00;99.90
18888;DHT22;9576;47.792;9.628;2022-11-10T12:34:29;16.30;99.90
18888;DHT22;9576;47.792;9.628;2022-11-10T12:37:37;16.60;99.90
18888;DHT22;9576;47.792;9.628;2022-11-10T12:40:45;16.80;99.90
18888;DHT22;9576;47.792;9.628;2022-11-10T12:44:02;17.10;99.90
18888;DHT22;9576;47.792;9.628;2022-11-10T12:47:12;17.20;99.90
18888;DHT22;9576;47.792;9.628;2022-11-10T12:50:26;17.40;99.90
18888;DHT22;9576;47.792;9.628;2022-11-10T12:53:30;17.80;99.90
18888;DHT22;9576;47.792;9.628;2022-11-10T12:56:38;18.10;99.90
18888;DHT22;9576;47.792;9.628;2022-11-10T12:59:52;18.30;99.90
18888;DHT22;9576;47.792;9.628;2022-11-10T13:02:55;18.60;99.90
18888;DHT22;9576;47.792;9.628;2022-11-10T13:06:00;18.90;99.90
18888;DHT22;9576;47.792;9.628;2022-11-10T13:09:03;19.10;99.90
18888;DHT22;9576;47.792;9.628;2022-11-10T13:12:18;19.40;99.90
18888;DHT22;9576;47.792;9.628;2022-11-10T13:15:49;19.70;99.90
18888;DHT22;9576;47.792;9.628;2022-11-10T13:18:52;20.40;99.90
18888;DHT22;9576;47.792;9.628;2022-11-10T13:22:08;20.90;99.90
18888;DHT22;9576;47.792;9.628;2022-11-10T13:29:01;21.60;99.90
18888;DHT22;9576;47.792;9.628;2022-11-10T13:32:24;22.30;99.90
18888;DHT22;9576;47.792;9.628;2022-11-10T13:35:50;22.70;99.90
18888;DHT22;9576;47.792;9.628;2022-11-10T13:38:52;23.20;99.90
18888;DHT22;9576;47.792;9.628;2022-11-10T13:42:00;23.90;99.90
18888;DHT22;9576;47.792;9.628;2022-11-10T13:48:59;24.40;99.90
18888;DHT22;9576;47.792;9.628;2022-11-10T13:52:12;24.70;99.90
18888;DHT22;9576;47.792;9.628;2022-11-10T13:55:25;25.20;99.90
18888;DHT22;9576;47.792;9.628;2022-11-10T13:58:33;25.60;99.90
18888;DHT22;9576;47.792;9.628;2022-11-10T14:01:36;25.50;99.90
18888;DHT22;9576;47.792;9.628;2022-11-10T14:04:42;25.20;99.90
18888;DHT22;9576;47.792;9.628;2022-11-10T14:07:45;25.70;99.90
18888;DHT22;9576;47.792;9.628;2022-11-10T14:10:50;26.10;99.90
18888;DHT22;9576;47.792;9.628;2022-11-10T14:13:57;26.70;99.90
18888;DHT22;9576;47.792;9.628;2022-11-10T14:17:00;26.60;99.90
18888;DHT22;9576;47.792;9.628;2022-11-10T14:20:16;26.60;99.90
18888;DHT22;9576;47.792;9.628;2022-11-10T14:23:24;26.60;99.90
18888;DHT22;9576;47.792;9.628;2022-11-10T14:26:33;26.90;99.90
18888;DHT22;9576;47.792;9.628;2022-11-10T14:29:36;26.90;99.90
18888;DHT22;9576;47.792;9.628;2022-11-10T14:32:41;26.50;99.90
18888;DHT22;9576;47.792;9.628;2022-11-10T14:35:47;26.10;99.90
18888;DHT22;9576;47.792;9.628;2022-11-10T14:38:51;25.50;99.20
18888;DHT22;9576;47.792;9.628;2022-11-10T14:41:53;24.90;99.10
18888;DHT22;9576;47.792;9.628;2022-11-10T14:45:07;24.50;99.90
18888;DHT22;9576;47.792;9.628;2022-11-10T14:48:17;23.40;99.90
18888;DHT22;9576;47.792;9.628;2022-11-10T14:51:21;22.60;99.90
18888;DHT22;9576;47.792;9.628;2022-11-10T14:54:25;21.50;99.90
18888;DHT22;9576;47.792;9.628;2022-11-10T14:57:27;20.80;99.90
18888;DHT22;9576;47.792;9.628;2022-11-10T15:00:33;20.10;99.90
18888;DHT22;9576;47.792;9.628;2022-11-10T15:03:38;19.20;99.90
18888;DHT22;9576;47.792;9.628;2022-11-10T15:06:42;18.10;99.90
18888;DHT22;9576;47.792;9.628;2022-11-10T15:10:06;16.80;99.90
18888;DHT22;9576;47.792;9.628;2022-11-10T15:13:19;16.20;99.90
18888;DHT22;9576;47.792;9.628;2022-11-10T15:16:24;15.40;99.90
18888;DHT22;9576;47.792;9.628;2022-11-10T15:19:27;15.10;99.90
18888;DHT22;9576;47.792;9.628;2022-11-10T15:22:34;14.70;99.90
18888;DHT22;9576;47.792;9.628;2022-11-10T15:25:38;14.50;99.90
18888;DHT22;9576;47.792;9.628;2022-11-10T15:28:41;14.20;99.90
18888;DHT22;9576;47.792;9.628;2022-11-10T15:31:43;14.10;99.90
18888;DHT22;9576;47.792;9.628;2022-11-10T15:34:47;14.00;99.90
18888;DHT22;9576;47.792;9.628;2022-11-10T15:37:59;13.90;99.90
18888;DHT22;9576;47.792;9.628;2022-11-10T15:41:10;13.80;99.90
18888;DHT22;9576;47.792;9.628;2022-11-10T15:44:17;13.70;99.90
18888;DHT22;9576;47.792;9.628;2022-11-10T15:47:19;13.50;99.90
18888;DHT22;9576;47.792;9.628;2022-11-10T15:50:21;13.30;99.90
18888;DHT22;9576;47.792;9.628;2022-11-10T15:53:29;13.10;99.90
18888;DHT22;9576;47.792;9.628;2022-11-10T15:56:31;12.90;99.90
18888;DHT22;9576;47.792;9.628;2022-11-10T15:59:33;12.70;99.90
18888;DHT22;9576;47.792;9.628;2022-11-10T16:02:35;12.40;99.90
18888;DHT22;9576;47.792;9.628;2022-11-10T16:05:37;12.20;99.90
18888;DHT22;9576;47.792;9.628;2022-11-10T16:08:42;12.00;99.90
18888;DHT22;9576;47.792;9.628;2022-11-10T16:11:44;11.80;99.90
18888;DHT22;9576;47.792;9.628;2022-11-10T16:14:48;11.60;99.90
18888;DHT22;9576;47.792;9.628;2022-11-10T16:17:50;11.40;99.90
18888;DHT22;9576;47.792;9.628;2022-11-10T16:20:52;11.20;99.90
18888;DHT22;9576;47.792;9.628;2022-11-10T16:23:55;11.10;99.90
18888;DHT22;9576;47.792;9.628;2022-11-10T16:26:57;11.00;99.90
18888;DHT22;9576;47.792;9.628;2022-11-10T16:29:59;10.80;99.90
18888;DHT22;9576;47.792;9.628;2022-11-10T16:33:01;10.70;99.90
18888;DHT22;9576;47.792;9.628;2022-11-10T16:36:04;10.60;99.90
18888;DHT22;9576;47.792;9.628;2022-11-10T16:39:11;10.50;99.90
18888;DHT22;9576;47.792;9.628;2022-11-10T16:42:13;10.40;99.90
18888;DHT22;9576;47.792;9.628;2022-11-10T16:45:17;10.40;99.90
18888;DHT22;9576;47.792;9.628;2022-11-10T16:48:21;10.30;99.90
18888;DHT22;9576;47.792;9.628;2022-11-10T16:51:27;10.20;99.90
18888;DHT22;9576;47.792;9.628;2022-11-10T16:54:31;10.10;99.90
18888;DHT22;9576;47.792;9.628;2022-11-10T16:57:33;10.10;99.90
18888;DHT22;9576;47.792;9.628;2022-11-10T17:00:36;10.00;99.90
18888;DHT22;9576;47.792;9.628;2022-11-10T17:03:42;9.90;99.90
18888;DHT22;9576;47.792;9.628;2022-11-10T17:06:44;9.80;99.90
18888;DHT22;9576;47.792;9.628;2022-11-10T17:09:47;9.80;99.90
18888;DHT22;9576;47.792;9.628;2022-11-10T17:12:49;9.70;99.90
18888;DHT22;9576;47.792;9.628;2022-11-10T17:15:53;9.60;99.90
18888;DHT22;9576;47.792;9.628;2022-11-10T17:18:59;9.60;99.90
18888;DHT22;9576;47.792;9.628;2022-11-10T17:22:01;9.60;99.90
18888;DHT22;9576;47.792;9.628;2022-11-10T17:25:08;9.50;99.90
18888;DHT22;9576;47.792;9.628;2022-11-10T17:28:15;9.40;99.90
18888;DHT22;9576;47.792;9.628;2022-11-10T17:31:17;9.40;99.90
18888;DHT22;9576;47.792;9.628;2022-11-10T17:34:19;9.40;99.90
18888;DHT22;9576;47.792;9.628;2022-11-10T17:37:20;9.30;99.90
18888;DHT22;9576;47.792;9.628;2022-11-10T17:40:25;9.30;99.90
18888;DHT22;9576;47.792;9.628;2022-11-10T17:43:28;9.20;99.90
18888;DHT22;9576;47.792;9.628;2022-11-10T17:46:30;9.10;99.90
18888;DHT22;9576;47.792;9.628;2022-11-10T17:49:32;9.10;99.90
18888;DHT22;9576;47.792;9.628;2022-11-10T17:52:34;9.00;99.90
18888;DHT22;9576;47.792;9.628;2022-11-10T17:55:37;9.00;99.90
18888;DHT22;9576;47.792;9.628;2022-11-10T17:58:39;9.00;99.90
18888;DHT22;9576;47.792;9.628;2022-11-10T18:01:41;8.90;99.90
18888;DHT22;9576;47.792;9.628;2022-11-10T18:04:43;8.90;99.90
18888;DHT22;9576;47.792;9.628;2022-11-10T18:07:48;8.80;99.90
18888;DHT22;9576;47.792;9.628;2022-11-10T18:10:51;8.80;99.90
18888;DHT22;9576;47.792;9.628;2022-11-10T18:13:53;8.80;99.90
18888;DHT22;9576;47.792;9.628;2022-11-10T18:16:55;8.70;99.90
18888;DHT22;9576;47.792;9.628;2022-11-10T18:19:57;8.60;99.90
18888;DHT22;9576;47.792;9.628;2022-11-10T18:22:59;8.40;99.90
18888;DHT22;9576;47.792;9.628;2022-11-10T18:26:07;8.40;99.90
18888;DHT22;9576;47.792;9.628;2022-11-10T18:29:11;8.30;99.90
18888;DHT22;9576;47.792;9.628;2022-11-10T18:32:13;8.20;99.90
18888;DHT22;9576;47.792;9.628;2022-11-10T18:35:15;8.20;99.90
18888;DHT22;9576;47.792;9.628;2022-11-10T18:38:17;8.10;99.90
18888;DHT22;9576;47.792;9.628;2022-11-10T18:41:20;8.10;99.90
18888;DHT22;9576;47.792;9.628;2022-11-10T18:44:39;8.10;99.90
18888;DHT22;9576;47.792;9.628;2022-11-10T18:47:41;8.10;99.90
18888;DHT22;9576;47.792;9.628;2022-11-10T18:50:43;8.10;99.90
18888;DHT22;9576;47.792;9.628;2022-11-10T18:53:45;8.10;99.90
18888;DHT22;9576;47.792;9.628;2022-11-10T18:56:48;8.10;99.90
18888;DHT22;9576;47.792;9.628;2022-11-10T18:59:51;8.00;99.90
18888;DHT22;9576;47.792;9.628;2022-11-10T19:02:53;8.00;99.90
18888;DHT22;9576;47.792;9.628;2022-11-10T19:05:56;8.00;99.90
18888;DHT22;9576;47.792;9.628;2022-11-10T19:08:58;8.00;99.90
18888;DHT22;9576;47.792;9.628;2022-11-10T19:12:02;8.00;99.90
18888;DHT22;9576;47.792;9.628;2022-11-10T19:15:05;7.90;99.90
18888;DHT22;9576;47.792;9.628;2022-11-10T19:18:07;7.90;99.90
18888;DHT22;9576;47.792;9.628;2022-11-10T19:21:11;7.80;99.90
18888;DHT22;9576;47.792;9.628;2022-11-10T19:24:13;7.80;99.90
18888;DHT22;9576;47.792;9.628;2022-11-10T19:27:17;7.70;99.90
18888;DHT22;9576;47.792;9.628;2022-11-10T19:30:19;7.60;99.90
18888;DHT22;9576;47.792;9.628;2022-11-10T19:33:20;7.60;99.90
18888;DHT22;9576;47.792;9.628;2022-11-10T19:36:24;7.50;99.90
18888;DHT22;9576;47.792;9.628;2022-11-10T19:39:26;7.50;99.90
18888;DHT22;9576;47.792;9.628;2022-11-10T19:42:29;7.50;99.90
18888;DHT22;9576;47.792;9.628;2022-11-10T19:45:33;7.50;99.90
18888;DHT22;9576;47.792;9.628;2022-11-10T19:48:35;7.40;99.90
18888;DHT22;9576;47.792;9.628;2022-11-10T19:51:37;7.40;99.90
18888;DHT22;9576;47.792;9.628;2022-11-10T19:54:39;7.40;99.90
18888;DHT22;9576;47.792;9.628;2022-11-10T19:57:44;7.30;99.90
18888;DHT22;9576;47.792;9.628;2022-11-10T20:00:46;7.30;99.90
18888;DHT22;9576;47.792;9.628;2022-11-10T20:03:49;7.30;99.90
18888;DHT22;9576;47.792;9.628;2022-11-10T20:06:50;7.30;99.90